Robert Gray Army Air Field Airport
KGRK : rendu visible

Aérodrome :











RETROUVEZ-NOUS SUR...

 
LOGIN :

S'inscrire | Disclaimer

   EN    FR    IT 

 









Légende :    VFR   VFR Marginal   IFR   IFR Intensif   IFR Très Intensif
Visi : 
Plafond : 
>= 8 km
>= 3000ft
5 à 8 km
1000 à 3000 ft
1500m à 5 km
500 à 1000 ft
800 à 1500m
200 à 500 ft
< 800m
< 200 ft
Symboles :   Orages  Brouillard  Fortes neiges  Fortes précipitations  Vent > 20 kt






- Altitude de l'aérodrome : 1015 ft
- Code IATA : GRK


KGRK - Robert Gray Army Air Field

DERNIER METAR :
  • 171158Z 00000KT 10SM CLR 05/03 A3003 RMK AO2A SLP171 T00490030 10069 20036 55002 $

METARs EXPIRÉS :
  • 171058Z 00000KT 10SM CLR 06/03 A3003 RMK AO2A SLP170 T00560034 $
  • 170958Z AUTO 00000KT 10SM CLR 05/02 A3003 RMK AO2 VIS 2 1/2 RWY15 SLP169 T00490023 $

TAF TAF KGRK
Valide du 17 à 08h jusqu'au 18 à 14h UTC


170800Z 1708/1814 VRB06KT 9999 SCT250 QNH3001INS
BECMG 1716/1717 20009KT 9999 FEW040 SCT150 QNH3000INS
BECMG 1720/1721 34009KT 9999 FEW250 QNH3001INS
BECMG 1800/1801 VRB06KT 9999 FEW250 QNH2999INS TX20/1719Z TN04/1712Z



MET'MAP, la Météo Aéronautique d'un coup d'oeil ! - Copyright ORBIFLY Décembre 2007 - Disclaimer

ORBIFLY MET'MAP TEAM :

Programmation & Développement : Alexandra Zaïnal
Conception & Développement : Baudouin d'Aumeries
Co-Programmation & Développement : Marc-Olivier Méhu
Soutien technique & logistique : Manuel Goepfert

Contact : metmap@orbifly.com




SOURCES & CREDITS :

   NOAA       Earth
Advisory